Time;durP1;ratioP1;P1;durP2;ratioP2;P2;SDS_P1;SDS_P2;PMS_P1;PMS_P2;Temp;Humidity;BMP_temperature;BMP_pressure;BME280_temperature;BME280_humidity;BME280_pressure;Samples;Min_cycle;Max_cycle;Signal;HPM_P1;HPM_P2
2023/05/22 00:01:25;;;;;;;12.65;6.78;;;;;;;-145.69;100.00;52371.13;5056505;28;20555;-78
2023/05/22 00:03:51;;;;;;;11.68;7.07;;;;;;;-145.69;100.00;52319.63;5056092;28;20231;-78
2023/05/22 00:06:19;;;;;;;15.20;7.38;;;;;;;-145.69;100.00;52361.22;5055763;28;20561;-78
2023/05/22 00:08:49;;;;;;;13.50;8.15;;;;;;;-145.69;100.00;52373.09;5056838;28;20286;-78
2023/05/22 00:11:16;;;;;;;15.02;8.38;;;;;;;-145.69;100.00;52357.25;5056181;28;20199;-78
2023/05/22 00:13:42;;;;;;;11.37;7.83;;;;;;;-145.69;100.00;52353.28;5055951;28;20606;-78
2023/05/22 00:16:12;;;;;;;14.88;8.40;;;;;;;-145.69;100.00;52361.22;5055936;28;20207;-79
2023/05/22 00:18:41;;;;;;;16.57;8.77;;;;;;;-145.69;100.00;52321.59;5055961;28;20207;-78
2023/05/22 00:21:08;;;;;;;20.00;9.57;;;;;;;-145.69;100.00;52361.22;5073800;28;20279;-78
2023/05/22 00:23:36;;;;;;;12.17;8.00;;;;;;;-145.69;100.00;52353.28;5075969;28;20250;-78
2023/05/22 00:26:03;;;;;;;14.10;7.78;;;;;;;-145.69;100.00;52357.25;5071319;28;20199;-78
2023/05/22 00:28:29;;;;;;;15.53;8.40;;;;;;;-145.69;100.00;52369.13;5055856;28;20211;-78
2023/05/22 00:30:56;;;;;;;11.18;8.02;;;;;;;-145.69;100.00;52353.28;5055249;28;20195;-77
2023/05/22 00:33:22;;;;;;;16.67;9.35;;;;;;;-145.69;100.00;52363.19;5072988;28;20199;-78
2023/05/22 00:35:49;;;;;;;19.45;9.95;;;;;;;-145.69;100.00;52375.06;5059122;28;20203;-78
2023/05/22 00:38:29;;;;;;;16.37;9.63;;;;;;;-145.69;100.00;52341.41;5055744;28;20238;-78
2023/05/22 00:40:56;;;;;;;14.00;8.53;;;;;;;-145.69;100.00;52349.31;5055776;28;20203;-78
2023/05/22 00:43:23;;;;;;;14.77;9.50;;;;;;;-145.69;100.00;52371.13;5055518;28;20199;-78
2023/05/22 00:45:51;;;;;;;22.03;11.07;;;;;;;-145.69;100.00;52367.16;5035163;28;20199;-78
2023/05/22 00:48:17;;;;;;;21.13;11.60;;;;;;;-145.69;100.00;52349.31;5035404;28;20287;-78
2023/05/22 00:50:44;;;;;;;19.93;10.37;;;;;;;-145.69;100.00;52351.31;5035816;28;20204;-78
2023/05/22 00:53:11;;;;;;;16.20;10.30;;;;;;;-145.69;100.00;52351.31;5035549;28;20204;-78
2023/05/22 00:55:38;;;;;;;16.30;9.43;;;;;;;-145.69;100.00;52353.28;5042535;28;20285;-77
2023/05/22 00:58:07;;;;;;;14.47;10.00;;;;;;;-145.69;100.00;52361.22;5060295;28;20283;-77
2023/05/22 01:00:35;;;;;;;14.80;9.83;;;;;;;-145.69;100.00;52345.38;5058084;28;20658;-78
2023/05/22 01:03:03;;;;;;;17.17;10.20;;;;;;;-145.69;100.00;52377.06;5055380;28;20569;-78
2023/05/22 01:05:30;;;;;;;20.73;12.00;;;;;;;-145.69;100.00;52375.06;5055315;28;20235;-78
2023/05/22 01:07:56;;;;;;;19.47;11.77;;;;;;;-145.69;100.00;52365.16;5063306;28;20281;-78
2023/05/22 01:10:23;;;;;;;22.80;12.03;;;;;;;-145.69;100.00;52361.22;5075200;28;20202;-78
2023/05/22 01:13:00;;;;;;;20.03;12.40;;;;;;;-145.69;100.00;52341.41;5067200;28;20195;-77
2023/05/22 01:15:39;;;;;;;22.13;13.83;;;;;;;-145.69;100.00;52363.19;5068096;28;20198;-78
2023/05/22 01:18:18;;;;;;;22.90;12.43;;;;;;;-145.69;100.00;52363.19;5075096;28;20199;-78
2023/05/22 01:20:50;;;;;;;23.33;12.67;;;;;;;-145.69;100.00;52369.13;5075106;28;20195;-78
2023/05/22 01:23:48;;;;;;;24.33;12.17;;;;;;;-145.69;100.00;52363.19;5074797;28;20260;-77
2023/05/22 01:26:52;;;;;;;20.57;11.53;;;;;;;-145.69;100.00;52373.09;5056799;28;20204;-77
2023/05/22 01:29:30;;;;;;;20.53;11.53;;;;;;;-145.69;100.00;52373.09;5054504;28;20203;-78
2023/05/22 01:32:01;;;;;;;22.83;11.87;;;;;;;-145.69;100.00;52369.13;5044344;28;20643;-78
2023/05/22 01:34:30;;;;;;;17.63;10.88;;;;;;;-145.69;100.00;52353.28;5035090;28;20591;-78
2023/05/22 01:36:58;;;;;;;16.87;11.07;;;;;;;-145.69;100.00;52371.13;5034969;28;20199;-79
2023/05/22 01:39:25;;;;;;;16.45;11.55;;;;;;;-145.69;100.00;52347.34;5034930;28;20197;-79
2023/05/22 01:41:52;;;;;;;17.83;10.93;;;;;;;-145.69;100.00;52341.41;5034705;28;20207;-78
2023/05/22 01:44:18;;;;;;;17.35;11.60;;;;;;;-145.69;100.00;52365.16;5069919;28;20222;-79
2023/05/22 01:46:45;;;;;;;15.63;10.48;;;;;;;-145.69;100.00;52381.00;5073915;28;20687;-79
2023/05/22 01:49:19;;;;;;;15.30;10.43;;;;;;;-145.69;100.00;52349.31;5074469;28;20226;-79
2023/05/22 01:51:52;;;;;;;16.83;11.05;;;;;;;-145.69;100.00;52361.22;5074478;28;20294;-78
2023/05/22 01:54:24;;;;;;;17.43;10.57;;;;;;;-145.69;100.00;52353.28;5071304;28;20670;-79
2023/05/22 01:56:54;;;;;;;16.77;11.10;;;;;;;-145.69;100.00;52361.22;5071692;28;20558;-79
2023/05/22 01:59:26;;;;;;;20.33;11.00;;;;;;;-145.69;100.00;52349.31;5074430;28;20243;-79
2023/05/22 02:01:55;;;;;;;15.73;9.88;;;;;;;-145.69;100.00;52384.97;5074526;28;20199;-79
2023/05/22 02:04:23;;;;;;;18.90;11.05;;;;;;;-145.69;100.00;52365.16;5060527;28;20227;-79
2023/05/22 02:07:45;;;;;;;15.90;9.98;;;;;;;-145.69;100.00;52369.13;5051346;28;20608;-79
2023/05/22 02:10:14;;;;;;;15.20;9.93;;;;;;;-145.69;100.00;52394.88;5073049;28;20239;-79
2023/05/22 02:12:41;;;;;;;18.73;10.18;;;;;;;-145.69;100.00;52365.16;5056624;28;20665;-78
2023/05/22 02:15:09;;;;;;;17.77;9.38;;;;;;;-145.69;100.00;52377.06;5054047;28;20200;-79
2023/05/22 02:17:39;;;;;;;19.88;10.20;;;;;;;-145.69;100.00;52363.19;5067397;28;20230;-78
2023/05/22 02:20:13;;;;;;;18.13;10.77;;;;;;;-145.69;100.00;52339.44;5060022;28;20286;-78
2023/05/22 02:22:41;;;;;;;15.02;9.98;;;;;;;-145.69;100.00;52367.16;5052691;28;20252;-78
2023/05/22 02:25:12;;;;;;;19.92;11.85;;;;;;;-145.69;100.00;52365.16;5053975;28;20228;-78
2023/05/22 02:27:39;;;;;;;18.27;9.98;;;;;;;-145.69;100.00;52373.09;5053677;28;20195;-78
2023/05/22 02:30:07;;;;;;;14.70;9.75;;;;;;;-145.69;100.00;52365.16;5066552;28;20205;-78
2023/05/22 02:32:34;;;;;;;18.05;9.70;;;;;;;-145.69;100.00;52349.31;5073450;28;20195;-78
2023/05/22 02:35:01;;;;;;;14.45;9.88;;;;;;;-145.69;100.00;52361.22;5073370;28;20256;-78
2023/05/22 02:37:29;;;;;;;16.48;10.40;;;;;;;-145.69;100.00;52343.38;5057659;28;20554;-78
2023/05/22 02:39:56;;;;;;;17.45;10.55;;;;;;;-145.69;100.00;52390.91;5064211;28;20198;-78
2023/05/22 02:42:22;;;;;;;19.48;10.95;;;;;;;-145.69;100.00;52388.94;5073516;28;20565;-78
2023/05/22 02:44:52;;;;;;;18.25;11.10;;;;;;;-145.69;100.00;52327.53;5073082;28;20461;-78
2023/05/22 02:47:18;;;;;;;14.55;9.77;;;;;;;-145.69;100.00;52355.28;5072919;28;20195;-78
2023/05/22 02:49:45;;;;;;;18.17;11.43;;;;;;;-145.69;100.00;52341.41;5063556;28;20604;-78
2023/05/22 02:52:11;;;;;;;15.93;10.38;;;;;;;-145.69;100.00;52353.28;5053385;28;20203;-78
2023/05/22 02:54:41;;;;;;;21.65;11.25;;;;;;;-145.69;100.00;52361.22;5058806;28;20191;-78
2023/05/22 02:57:07;;;;;;;17.15;10.98;;;;;;;-145.69;100.00;52353.28;5073313;28;20195;-78
2023/05/22 02:59:37;;;;;;;21.33;12.07;;;;;;;-145.69;100.00;52341.41;5066005;28;20219;-78
2023/05/22 03:02:05;;;;;;;18.95;11.10;;;;;;;-145.69;100.00;52369.13;5052999;28;20253;-78
2023/05/22 03:04:32;;;;;;;15.70;9.65;;;;;;;-145.69;100.00;52383.00;5057375;28;20712;-79
2023/05/22 03:07:00;;;;;;;14.60;9.77;;;;;;;-145.69;100.00;52367.16;5073175;28;20206;-78
2023/05/22 03:09:27;;;;;;;14.82;10.02;;;;;;;-145.69;100.00;52357.25;5044515;28;20187;-78
2023/05/22 03:11:55;;;;;;;15.88;9.88;;;;;;;-145.69;100.00;52309.72;5073144;28;20198;-78
2023/05/22 03:14:22;;;;;;;16.20;9.73;;;;;;;-145.69;100.00;52349.31;5069348;28;20202;-78
2023/05/22 03:16:53;;;;;;;14.95;10.07;;;;;;;-145.69;100.00;52355.28;5052573;28;20191;-78
2023/05/22 03:19:20;;;;;;;15.13;9.60;;;;;;;-145.69;100.00;52335.47;5057045;28;20562;-78
2023/05/22 03:21:48;;;;;;;14.73;10.02;;;;;;;-145.69;100.00;52359.22;5073031;28;20569;-78
2023/05/22 03:24:15;;;;;;;16.33;9.73;;;;;;;-145.69;100.00;52343.38;5072483;28;20198;-78
2023/05/22 03:26:42;;;;;;;14.13;9.52;;;;;;;-145.69;100.00;52369.13;5072841;28;20234;-78
2023/05/22 03:29:10;;;;;;;15.95;10.07;;;;;;;-145.69;100.00;52381.00;5070118;28;20281;-78
2023/05/22 03:31:38;;;;;;;12.82;9.13;;;;;;;-145.69;100.00;52365.16;5052925;28;20610;-78
2023/05/22 03:34:06;;;;;;;14.00;9.30;;;;;;;-145.69;100.00;52345.38;5051586;28;20294;-78
2023/05/22 03:36:33;;;;;;;14.32;9.63;;;;;;;-145.69;100.00;52341.41;5050344;28;20195;-80
2023/05/22 03:39:00;;;;;;;17.92;10.02;;;;;;;-145.69;100.00;52377.06;5061037;28;20282;-78
2023/05/22 03:41:26;;;;;;;16.23;9.73;;;;;;;-145.69;100.00;52357.25;5052347;28;20203;-78
2023/05/22 03:43:53;;;;;;;14.82;8.75;;;;;;;-145.69;100.00;52349.31;5052542;28;20286;-79
2023/05/22 03:46:21;;;;;;;12.15;9.27;;;;;;;-145.69;100.00;52331.50;5052660;28;20229;-78
2023/05/22 03:48:47;;;;;;;14.15;9.45;;;;;;;-145.69;100.00;52319.63;5052229;28;20310;-78
2023/05/22 03:51:17;;;;;;;18.17;10.13;;;;;;;-145.69;100.00;52381.00;5070192;28;20202;-78
2023/05/22 03:53:52;;;;;;;16.08;9.85;;;;;;;-145.69;100.00;52359.22;5061701;28;20196;-78
2023/05/22 03:56:18;;;;;;;15.52;9.68;;;;;;;-145.69;100.00;52321.59;5052414;28;20290;-78
2023/05/22 03:58:46;;;;;;;19.73;10.07;;;;;;;-145.69;100.00;52361.22;5052627;28;20196;-78
2023/05/22 04:01:13;;;;;;;15.85;10.70;;;;;;;-145.69;100.00;52357.25;5069730;28;20199;-78
2023/05/22 04:03:40;;;;;;;16.38;9.88;;;;;;;-145.69;100.00;52353.28;5062882;28;20191;-78
2023/05/22 04:06:12;;;;;;;15.63;9.82;;;;;;;-145.69;100.00;52361.22;5071816;28;20697;-78
2023/05/22 04:08:39;;;;;;;18.90;10.20;;;;;;;-145.69;100.00;52369.13;5072461;28;20203;-78
2023/05/22 04:11:07;;;;;;;18.38;10.05;;;;;;;-145.69;100.00;52337.44;5056026;28;20196;-78
2023/05/22 04:13:39;;;;;;;15.18;10.13;;;;;;;-145.69;100.00;52375.06;5053425;28;20192;-77
2023/05/22 04:16:09;;;;;;;13.68;9.82;;;;;;;-145.69;100.00;52357.25;5047506;28;20223;-78
2023/05/22 04:18:35;;;;;;;14.98;9.75;;;;;;;-145.69;100.00;52345.38;5052020;28;20200;-78
2023/05/22 04:21:12;;;;;;;18.25;10.93;;;;;;;-145.69;100.00;52381.00;5067254;28;20222;-78
2023/05/22 04:23:44;;;;;;;14.95;10.02;;;;;;;-145.69;100.00;52357.25;5065401;28;20222;-78
2023/05/22 04:26:11;;;;;;;18.95;11.02;;;;;;;-145.69;100.00;52357.25;5051654;28;20690;-79
2023/05/22 04:28:38;;;;;;;15.38;10.30;;;;;;;-145.69;100.00;52373.09;5052242;28;20195;-78
2023/05/22 04:31:06;;;;;;;16.73;9.77;;;;;;;-145.69;100.00;52349.31;5067255;28;20199;-78
2023/05/22 04:33:35;;;;;;;17.42;10.38;;;;;;;-145.69;100.00;52337.44;5065880;28;20218;-78
2023/05/22 04:36:04;;;;;;;16.20;10.07;;;;;;;-145.69;100.00;52359.22;5055620;28;20257;-78
2023/05/22 04:38:30;;;;;;;13.45;8.38;;;;;;;-145.69;100.00;52357.25;5072701;28;20616;-78
2023/05/22 04:41:01;;;;;;;14.98;9.65;;;;;;;-145.69;100.00;52357.25;5057502;28;20676;-78
2023/05/22 04:43:28;;;;;;;15.90;9.70;;;;;;;-145.69;100.00;52333.47;5060296;28;20222;-78
2023/05/22 04:45:55;;;;;;;14.65;9.50;;;;;;;-145.69;100.00;52355.28;5075583;28;20716;-77
2023/05/22 04:48:21;;;;;;;15.35;9.20;;;;;;;-145.69;100.00;52351.31;5075182;28;20321;-78
2023/05/22 04:50:53;;;;;;;15.05;9.35;;;;;;;-145.69;100.00;52343.38;5059428;28;20283;-78
2023/05/22 04:53:20;;;;;;;13.88;10.23;;;;;;;-145.69;100.00;52359.22;5055693;28;20446;-78
2023/05/22 04:55:48;;;;;;;14.07;9.43;;;;;;;-145.69;100.00;52319.63;5055239;28;20199;-79
2023/05/22 04:58:14;;;;;;;13.50;9.07;;;;;;;-145.69;100.00;52357.25;5066005;28;20191;-78
2023/05/22 05:00:43;;;;;;;13.40;9.18;;;;;;;-145.69;100.00;52327.53;5061461;28;20200;-78
2023/05/22 05:03:10;;;;;;;13.98;9.50;;;;;;;-145.69;100.00;52337.44;5071227;28;20594;-78
2023/05/22 05:05:38;;;;;;;14.88;10.15;;;;;;;-145.69;100.00;52333.47;5055283;28;20219;-78
2023/05/22 05:08:05;;;;;;;14.25;9.63;;;;;;;-145.69;100.00;52329.53;5055360;28;20290;-78
2023/05/22 05:10:38;;;;;;;14.00;9.05;;;;;;;-145.69;100.00;52341.41;5055185;28;20227;-78
2023/05/22 05:13:04;;;;;;;14.35;9.13;;;;;;;-145.69;100.00;52329.53;5069355;28;20198;-78
2023/05/22 05:15:31;;;;;;;11.40;7.85;;;;;;;-145.69;100.00;52329.53;5054894;28;20206;-78
2023/05/22 05:17:57;;;;;;;17.23;8.63;;;;;;;-145.69;100.00;52325.56;5055177;28;20200;-78
2023/05/22 05:20:27;;;;;;;14.68;9.43;;;;;;;-145.69;100.00;52321.59;5054710;28;20605;-78
2023/05/22 05:22:55;;;;;;;17.17;9.10;;;;;;;-145.69;100.00;52347.34;5067252;28;20195;-78
2023/05/22 05:25:24;;;;;;;17.23;9.50;;;;;;;-145.69;100.00;52285.97;5056326;28;20721;-78
2023/05/22 05:27:56;;;;;;;17.25;8.75;;;;;;;-145.69;100.00;52331.50;5051125;28;20613;-78
2023/05/22 05:30:23;;;;;;;13.00;8.52;;;;;;;-145.69;100.00;52319.63;5054818;28;20203;-79
2023/05/22 05:32:49;;;;;;;11.80;7.82;;;;;;;-145.69;100.00;52315.66;5055039;28;20196;-78
2023/05/22 05:35:16;;;;;;;14.20;8.93;;;;;;;-145.69;100.00;52291.91;5071884;28;20198;-79
2023/05/22 05:37:43;;;;;;;15.75;9.18;;;;;;;-145.69;100.00;52301.81;5074792;28;20298;-79
2023/05/22 05:40:10;;;;;;;14.18;8.88;;;;;;;-145.69;100.00;52299.81;5063930;28;20203;-79
2023/05/22 05:42:36;;;;;;;12.10;7.75;;;;;;;-145.69;100.00;52278.03;5063471;28;20194;-79
2023/05/22 05:45:07;;;;;;;11.85;8.02;;;;;;;-145.69;100.00;52244.38;5058382;28;20223;-79
2023/05/22 05:47:36;;;;;;;13.05;7.43;;;;;;;-145.69;100.00;52297.84;5054129;28;20214;-79
2023/05/22 05:50:05;;;;;;;12.43;8.48;;;;;;;-145.69;100.00;52341.41;5054324;28;20246;-79
2023/05/22 05:52:32;;;;;;;14.05;9.32;;;;;;;-145.69;100.00;52283.97;5055507;28;20227;-79
2023/05/22 05:55:01;;;;;;;17.00;9.30;;;;;;;-145.69;100.00;52309.72;5054648;28;20291;-78
2023/05/22 05:57:28;;;;;;;13.90;9.35;;;;;;;-145.69;100.00;52282.00;5072413;28;20210;-79
2023/05/22 05:59:55;;;;;;;13.75;9.48;;;;;;;-145.69;100.00;52254.28;5074139;28;20194;-78
2023/05/22 06:02:23;;;;;;;12.52;8.93;;;;;;;-145.69;100.00;52282.00;5074329;28;20290;-78
2023/05/22 06:04:50;;;;;;;13.35;8.57;;;;;;;-145.69;100.00;52268.13;5060949;28;20206;-78
2023/05/22 06:07:19;;;;;;;11.20;8.43;;;;;;;-145.69;100.00;52266.16;5069251;28;20636;-78
2023/05/22 06:09:46;;;;;;;12.00;8.45;;;;;;;-145.69;100.00;52234.47;5069204;28;20253;-79
2023/05/22 06:12:12;;;;;;;13.43;8.75;;;;;;;-145.69;100.00;52228.53;5058368;28;20202;-79
2023/05/22 06:14:39;;;;;;;12.43;8.52;;;;;;;-145.69;100.00;52238.44;5073710;28;20195;-79
2023/05/22 06:17:07;;;;;;;13.02;8.60;;;;;;;-145.69;100.00;52244.38;5059665;28;20195;-79
2023/05/22 06:19:37;;;;;;;10.30;7.75;;;;;;;-145.69;100.00;52238.44;5053856;28;20207;-78
2023/05/22 06:22:04;;;;;;;12.65;7.97;;;;;;;-145.69;100.00;52238.44;5052925;28;20436;-79
2023/05/22 06:24:33;;;;;;;11.70;7.95;;;;;;;-145.69;100.00;52234.47;5072004;28;20199;-78
2023/05/22 06:27:00;;;;;;;10.52;7.28;;;;;;;-145.69;100.00;52224.56;5073690;28;20578;-78
2023/05/22 06:29:28;;;;;;;13.60;8.23;;;;;;;-145.69;100.00;52234.47;5073221;28;20205;-78
2023/05/22 06:31:54;;;;;;;13.43;7.82;;;;;;;-145.69;100.00;52214.66;5073603;28;20206;-78
2023/05/22 06:34:21;;;;;;;13.05;7.47;;;;;;;-145.69;99.71;52210.72;5069888;28;20191;-78
2023/05/22 06:36:51;;;;;;;9.82;7.10;;;;;;;-145.69;95.08;52198.81;5073074;28;20562;-78
2023/05/22 06:39:21;;;;;;;10.60;6.50;;;;;;;-145.69;91.45;52206.75;5063699;28;20203;-78
2023/05/22 06:41:47;;;;;;;10.50;6.97;;;;;;;-145.69;83.70;52220.59;5053294;28;20328;-79
2023/05/22 06:44:14;;;;;;;8.93;6.60;;;;;;;-145.69;79.17;52175.06;5069022;28;20241;-78
2023/05/22 06:46:40;;;;;;;11.85;7.15;;;;;;;-145.69;73.44;52190.91;5073159;28;20226;-78
2023/05/22 06:49:07;;;;;;;9.45;7.10;;;;;;;-145.69;71.73;52173.09;5064668;28;20586;-78
2023/05/22 06:51:33;;;;;;;10.35;6.63;;;;;;;-145.69;74.55;52181.00;5053273;28;20199;-78
2023/05/22 06:54:03;;;;;;;10.40;6.57;;;;;;;-145.69;76.26;52206.75;5066149;28;20233;-78
2023/05/22 06:56:32;;;;;;;10.23;7.30;;;;;;;-145.69;86.42;52202.78;5073101;28;20289;-78
2023/05/22 06:58:58;;;;;;;10.82;6.90;;;;;;;-145.69;85.71;52190.91;5067012;28;20286;-77
2023/05/22 07:01:28;;;;;;;11.50;7.38;;;;;;;-145.69;81.13;52163.19;5057512;28;20194;-77
2023/05/22 07:03:57;;;;;;;10.68;6.72;;;;;;;-145.69;81.40;52175.06;5052351;28;20202;-78
2023/05/22 07:06:24;;;;;;;10.65;7.20;;;;;;;-145.69;76.37;52153.28;5052899;28;20322;-78
2023/05/22 07:08:51;;;;;;;8.93;6.63;;;;;;;-145.69;78.50;52171.09;5052746;28;20221;-78
2023/05/22 07:11:21;;;;;;;11.93;7.07;;;;;;;-145.69;81.62;52149.31;5055807;28;20191;-79
2023/05/22 07:13:47;;;;;;;10.82;7.25;;;;;;;-145.69;78.02;52175.06;5054419;28;20245;-78
2023/05/22 07:16:14;;;;;;;11.45;6.85;;;;;;;-145.69;78.40;52163.19;5052785;28;20203;-77
2023/05/22 07:18:41;;;;;;;12.07;6.93;;;;;;;-145.69;76.85;52177.03;5052752;28;20650;-78
2023/05/22 07:21:10;;;;;;;8.80;6.75;;;;;;;-145.69;82.36;52173.09;5054104;28;20207;-78
2023/05/22 07:23:36;;;;;;;14.23;7.28;;;;;;;-145.69;81.53;52210.72;5069314;28;20666;-78
2023/05/22 07:26:06;;;;;;;8.80;6.55;;;;;;;-145.69;82.08;52202.78;5039223;28;20231;-78
2023/05/22 07:28:34;;;;;;;9.35;6.47;;;;;;;-145.69;78.82;52194.88;5032620;28;20200;-78
2023/05/22 07:31:00;;;;;;;11.88;6.85;;;;;;;-145.69;80.92;52171.09;5033090;28;20203;-79
2023/05/22 07:33:27;;;;;;;11.48;7.13;;;;;;;-145.69;84.05;52192.88;5066130;28;20203;-77
2023/05/22 07:35:53;;;;;;;12.82;7.25;;;;;;;-145.69;82.79;52194.88;5042088;28;20588;-80
2023/05/22 07:38:21;;;;;;;9.60;7.32;;;;;;;-145.69;79.44;52165.16;5052634;28;20203;-79
2023/05/22 07:40:47;;;;;;;10.05;6.72;;;;;;;-145.69;78.62;52167.13;5052351;28;20646;-79
2023/05/22 07:43:14;;;;;;;9.75;7.10;;;;;;;-145.69;82.37;52151.28;5065294;28;20194;-79
2023/05/22 07:45:42;;;;;;;9.98;7.25;;;;;;;-145.69;81.57;52186.94;5059433;28;20210;-79
2023/05/22 07:48:10;;;;;;;11.27;6.80;;;;;;;-145.69;76.56;52175.06;5052582;28;20195;-79
2023/05/22 07:50:43;;;;;;;9.45;6.78;;;;;;;-145.69;68.02;52151.28;5060170;28;20261;-80
2023/05/22 07:53:10;;;;;;;9.77;6.78;;;;;;;-145.69;72.29;52147.34;5051272;28;20211;-79
2023/05/22 07:55:38;;;;;;;9.05;6.80;;;;;;;-145.69;69.23;52127.53;5051336;28;20559;-79
2023/05/22 07:58:07;;;;;;;11.30;6.40;;;;;;;-145.69;67.39;52175.06;5052087;28;20199;-79
2023/05/22 08:00:33;;;;;;;10.30;6.65;;;;;;;-145.69;69.66;52167.13;5062042;28;20195;-79
2023/05/22 08:03:01;;;;;;;11.68;7.40;;;;;;;-145.69;66.99;52161.19;5071276;28;20203;-79
2023/05/22 08:05:28;;;;;;;9.30;6.50;;;;;;;-145.69;66.28;52151.28;5070010;28;20202;-78
2023/05/22 08:07:54;;;;;;;10.48;7.10;;;;;;;-145.69;67.92;52127.53;5072047;28;20317;-79
2023/05/22 08:10:21;;;;;;;12.30;6.95;;;;;;;-145.69;67.65;52147.34;5067060;28;20272;-78
2023/05/22 08:12:47;;;;;;;10.68;6.78;;;;;;;-145.69;72.46;52151.28;5056328;28;20780;-79
2023/05/22 08:15:14;;;;;;;10.10;6.10;;;;;;;-145.69;69.88;52145.34;5070905;28;20206;-79
2023/05/22 08:17:41;;;;;;;11.35;7.15;;;;;;;-145.69;73.49;52143.38;5076304;28;20580;-78
2023/05/22 08:20:13;;;;;;;10.65;6.32;;;;;;;-145.69;73.57;52159.22;5056326;28;20288;-78
2023/05/22 08:22:40;;;;;;;12.45;7.20;;;;;;;-145.69;69.75;52151.28;5056202;28;20589;-79
2023/05/22 08:25:07;;;;;;;11.05;6.65;;;;;;;-145.69;72.31;52135.47;5069087;28;20638;-79
2023/05/22 08:27:33;;;;;;;10.52;7.07;;;;;;;-145.69;81.16;52143.38;5073700;28;20234;-79
2023/05/22 08:30:04;;;;;;;10.73;6.72;;;;;;;-145.69;77.89;52131.50;5056604;28;20202;-79
2023/05/22 08:32:31;;;;;;;8.98;6.88;;;;;;;-145.69;76.19;52155.25;5056139;28;20195;-80
2023/05/22 08:35:01;;;;;;;10.00;6.22;;;;;;;-145.69;71.30;52139.41;5067367;28;20209;-79
2023/05/22 08:37:29;;;;;;;11.35;7.90;;;;;;;-145.69;74.51;52151.28;5075689;28;20257;-78
2023/05/22 08:39:57;;;;;;;12.48;7.95;;;;;;;-145.69;71.51;52171.09;5056217;28;20191;-78
2023/05/22 08:42:24;;;;;;;11.35;7.72;;;;;;;-145.69;76.83;52159.22;5054808;28;20196;-79
2023/05/22 08:44:51;;;;;;;12.00;6.82;;;;;;;-145.69;75.71;52149.31;5062170;28;20210;-78
2023/05/22 08:47:19;;;;;;;10.38;7.45;;;;;;;-145.69;84.45;52139.41;5055427;28;20230;-78
2023/05/22 08:49:50;;;;;;;11.15;7.07;;;;;;;-145.69;75.26;52131.50;5069273;28;20227;-78
2023/05/22 08:52:22;;;;;;;15.00;7.88;;;;;;;-145.69;79.45;52157.25;5035534;28;20196;-80
2023/05/22 08:54:56;;;;;;;10.68;7.30;;;;;;;-145.69;73.18;52155.25;5035490;28;20590;-80
2023/05/22 08:57:24;;;;;;;11.80;7.22;;;;;;;-145.69;76.32;52135.47;5041259;28;20209;-79
2023/05/22 08:59:51;;;;;;;14.88;8.48;;;;;;;-145.69;74.97;52155.25;5060529;28;20286;-80
2023/05/22 09:02:18;;;;;;;14.10;7.95;;;;;;;-145.69;73.77;52147.34;5055117;28;20257;-83
2023/05/22 09:04:44;;;;;;;15.32;8.40;;;;;;;-145.69;79.10;52147.34;5054796;28;20290;-80
2023/05/22 09:07:13;;;;;;;11.00;7.05;;;;;;;-145.69;67.57;52169.13;5060393;28;20761;-80
2023/05/22 09:09:42;;;;;;;12.43;7.70;;;;;;;-145.69;70.70;52147.34;5072897;28;20203;-79
2023/05/22 09:12:11;;;;;;;13.52;7.43;;;;;;;-145.69;66.31;52155.25;5055073;28;20203;-77
2023/05/22 09:14:41;;;;;;;13.32;7.88;;;;;;;-145.69;65.01;52135.47;5055135;28;20203;-76
2023/05/22 09:17:10;;;;;;;9.25;6.72;;;;;;;-145.69;62.32;52133.47;5055050;28;20278;-77
2023/05/22 09:19:39;;;;;;;10.52;6.35;;;;;;;-145.69;54.96;52143.38;5054693;28;20207;-78
2023/05/22 09:22:06;;;;;;;12.57;7.40;;;;;;;-145.69;63.67;52143.38;5054766;28;20638;-78
2023/05/22 09:24:38;;;;;;;11.02;7.40;;;;;;;-145.69;61.58;52131.50;5072109;28;20197;-77
2023/05/22 09:27:06;;;;;;;10.13;6.75;;;;;;;-145.69;63.76;52145.34;5073205;28;20222;-78
2023/05/22 09:29:48;;;;;;;14.90;6.78;;;;;;;-145.69;60.36;52149.31;5074856;28;20202;-77
2023/05/22 09:32:14;;;;;;;10.15;6.78;;;;;;;-145.69;54.95;52133.47;5054692;28;20208;-77
2023/05/22 09:34:41;;;;;;;10.85;6.53;;;;;;;-145.69;61.48;52147.34;5070173;28;20203;-77
2023/05/22 09:37:08;;;;;;;11.05;6.88;;;;;;;-145.69;57.63;52137.44;5056781;28;20230;-77
2023/05/22 09:39:42;;;;;;;15.43;6.88;;;;;;;-145.69;59.69;52123.56;5054724;28;20208;-77
2023/05/22 09:42:10;;;;;;;12.57;7.25;;;;;;;-145.69;61.34;52113.66;5054382;28;20201;-79
2023/05/22 09:44:42;;;;;;;9.90;6.70;;;;;;;-145.69;60.44;52123.56;5062267;28;20638;-79
2023/05/22 09:47:10;;;;;;;9.73;6.28;;;;;;;-145.69;55.54;52141.41;5055025;28;20227;-82
2023/05/22 09:49:41;;;;;;;7.80;6.15;;;;;;;-145.69;56.73;52161.19;5054473;28;20234;-80
2023/05/22 09:52:11;;;;;;;14.70;6.95;;;;;;;-145.69;58.96;52113.66;5055143;28;20570;-87
2023/05/22 09:54:49;;;;;;;12.82;6.85;;;;;;;-145.69;61.67;52115.66;5064482;28;20245;-79
2023/05/22 09:57:20;;;;;;;10.60;7.07;;;;;;;-145.69;66.32;52129.50;5074717;28;20202;-87
2023/05/22 09:59:53;;;;;;;11.52;7.25;;;;;;;-145.69;60.92;52149.31;5073998;28;20199;-82
2023/05/22 10:02:26;;;;;;;12.40;7.10;;;;;;;-145.69;59.69;52119.63;5074429;28;20207;-85
2023/05/22 10:04:56;;;;;;;11.27;7.65;;;;;;;-145.69;59.35;52139.41;5060083;28;20211;-88
2023/05/22 10:07:26;;;;;;;9.77;6.38;;;;;;;-145.69;58.41;52119.63;5074042;28;20645;-81
2023/05/22 10:10:04;;;;;;;13.80;7.32;;;;;;;-145.69;60.02;52129.50;5073915;28;20214;-83
2023/05/22 10:12:35;;;;;;;19.63;8.85;;;;;;;-145.69;64.46;52123.56;5072805;28;20721;-80
2023/05/22 10:15:06;;;;;;;16.25;7.30;;;;;;;-145.69;59.62;52107.72;5061179;28;20202;-82
2023/05/22 10:17:34;;;;;;;17.08;8.13;;;;;;;-145.69;64.44;52117.63;5053844;28;20290;-83
2023/05/22 10:20:02;;;;;;;21.25;9.23;;;;;;;-145.69;63.14;52135.47;5053978;28;20552;-82
2023/05/22 10:22:31;;;;;;;21.20;8.75;;;;;;;-145.69;63.94;52107.72;5053932;28;20230;-80
2023/05/22 10:24:59;;;;;;;10.10;6.20;;;;;;;-145.69;52.01;52143.38;5061782;28;20207;-81
2023/05/22 10:27:25;;;;;;;8.73;6.25;;;;;;;-145.69;49.71;52107.72;5053964;28;20231;-81
2023/05/22 10:30:00;;;;;;;10.25;6.18;;;;;;;-145.69;50.79;52119.63;5053649;28;20199;-81
2023/05/22 10:32:35;;;;;;;8.80;6.00;;;;;;;-145.69;51.56;52115.66;5054341;28;20218;-81
2023/05/22 10:35:11;;;;;;;7.95;5.97;;;;;;;-145.69;48.59;52117.63;5038001;28;20199;-81
2023/05/22 10:37:52;;;;;;;10.20;6.03;;;;;;;-145.69;50.95;52101.78;5072906;28;20202;-81
2023/05/22 10:40:27;;;;;;;14.38;7.47;;;;;;;-145.69;53.09;52101.78;5074241;28;20198;-81
2023/05/22 10:42:58;;;;;;;8.75;6.72;;;;;;;-145.69;49.23;52085.94;5058287;28;20190;-79
2023/05/22 10:45:26;;;;;;;12.32;6.90;;;;;;;-145.69;53.98;52117.63;5073509;28;20214;-83
2023/05/22 10:48:04;;;;;;;11.80;7.00;;;;;;;-145.69;55.29;52125.56;5073746;28;20236;-81
2023/05/22 10:50:30;;;;;;;14.13;7.38;;;;;;;-145.69;51.73;52083.97;5072413;28;20445;-81
2023/05/22 10:53:18;;;;;;;9.65;6.75;;;;;;;-145.69;48.76;52080.00;5056707;28;20234;-80
2023/05/22 10:55:48;;;;;;;12.45;6.72;;;;;;;-145.69;47.88;52083.97;5061819;28;20191;-80
2023/05/22 10:58:16;;;;;;;12.20;6.57;;;;;;;-145.69;48.77;52056.25;5073325;28;20195;-81
2023/05/22 11:00:42;;;;;;;12.00;6.82;;;;;;;-145.69;46.30;52078.03;5073397;28;20605;-82
2023/05/22 11:03:10;;;;;;;12.45;6.65;;;;;;;-145.69;47.22;52099.81;5059047;28;20202;-82
2023/05/22 11:05:38;;;;;;;9.40;7.10;;;;;;;-145.69;49.55;52091.88;5059211;28;20527;-81
2023/05/22 11:08:12;;;;;;;12.45;7.30;;;;;;;-145.69;52.26;52080.00;5073093;28;20223;-82
2023/05/22 11:10:55;;;;;;;13.80;7.15;;;;;;;-145.69;52.67;52123.56;5073955;28;20208;-81
2023/05/22 11:13:21;;;;;;;10.75;7.32;;;;;;;-145.69;51.16;52095.84;5068072;28;20203;-83